createdAt,value
2019-04-23T00:02:06.635Z,8.08
2019-04-23T00:04:36.842Z,7.45
2019-04-23T00:07:15.868Z,8.00
2019-04-23T00:09:42.393Z,7.95
2019-04-23T00:12:23.813Z,8.13
2019-04-23T00:14:52.560Z,7.67
2019-04-23T00:17:14.997Z,8.08
2019-04-23T00:19:53.673Z,8.68
2019-04-23T00:22:24.723Z,7.97
2019-04-23T00:27:35.788Z,8.20
2019-04-23T00:29:56.181Z,8.85
2019-04-23T00:32:28.740Z,7.45
2019-04-23T00:34:55.816Z,7.72
2019-04-23T00:37:35.567Z,8.10
2019-04-23T00:39:53.227Z,8.08
2019-04-23T00:42:32.965Z,7.72
2019-04-23T00:45:12.811Z,7.90
2019-04-23T00:47:31.281Z,7.75
2019-04-23T00:50:06.441Z,8.03
2019-04-23T00:52:32.222Z,7.97
2019-04-23T00:55:07.642Z,7.67
2019-04-23T00:57:47.040Z,7.58
2019-04-23T01:00:10.153Z,8.05
2019-04-23T01:07:33.514Z,7.85
2019-04-23T01:10:08.404Z,8.13
2019-04-23T01:12:47.729Z,7.78
2019-04-23T01:15:10.290Z,7.92
2019-04-23T01:17:46.875Z,7.28
2019-04-23T01:20:15.017Z,7.12
2019-04-23T01:22:27.473Z,7.08
2019-04-23T01:25:09.783Z,8.00
2019-04-23T01:28:15.461Z,7.33
2019-04-23T01:30:53.011Z,7.45
2019-04-23T01:33:21.680Z,7.50
2019-04-23T01:35:55.799Z,6.87
2019-04-23T01:38:24.077Z,7.03
2019-04-23T01:40:46.104Z,7.70
2019-04-23T01:43:39.938Z,7.08
2019-04-23T01:45:48.084Z,6.95
2019-04-23T01:48:18.558Z,7.10
2019-04-23T01:50:54.547Z,6.60
2019-04-23T01:53:28.769Z,7.40
2019-04-23T02:03:32.570Z,6.78
2019-04-23T02:06:00.308Z,7.10
2019-04-23T02:08:28.066Z,6.67
2019-04-23T02:15:57.153Z,7.08
2019-04-23T02:18:47.796Z,6.83
2019-04-23T02:21:20.065Z,7.65
2019-04-23T02:23:52.181Z,8.68
2019-04-23T02:26:20.138Z,7.40
2019-04-23T02:29:14.550Z,7.47
2019-04-23T02:31:45.274Z,6.35
2019-04-23T02:34:01.330Z,7.05
2019-04-23T02:36:24.575Z,8.00
2019-04-23T02:44:19.986Z,6.90
2019-04-23T02:46:36.151Z,6.65
2019-04-23T02:49:15.207Z,6.10
2019-04-23T02:51:54.590Z,6.90
2019-04-23T02:54:16.019Z,6.83
2019-04-23T02:56:48.716Z,6.53
2019-04-23T02:59:10.306Z,5.72
2019-04-23T03:01:29.840Z,6.20
2019-04-23T03:06:52.306Z,6.47
2019-04-23T03:11:48.451Z,6.67
2019-04-23T03:14:27.597Z,6.42
2019-04-23T03:16:54.700Z,6.40
2019-04-23T03:19:14.863Z,6.62
2019-04-23T03:24:43.494Z,7.17
2019-04-23T03:27:27.813Z,6.25
2019-04-23T03:37:23.130Z,6.78
2019-04-23T03:39:56.867Z,6.20
2019-04-23T03:42:24.428Z,6.25
2019-04-23T03:47:24.822Z,6.45
2019-04-23T03:49:56.024Z,6.20
2019-04-23T03:57:24.514Z,6.30
2019-04-23T04:00:31.073Z,5.92
2019-04-23T04:04:51.698Z,5.62
2019-04-23T04:07:49.355Z,6.37
2019-04-23T04:09:52.107Z,6.20
2019-04-23T04:12:35.645Z,5.40
2019-04-23T04:17:33.145Z,5.92
2019-04-23T04:20:05.230Z,5.60
2019-04-23T04:30:18.665Z,5.35
2019-04-23T04:32:36.470Z,5.72
2019-04-23T04:41:05.538Z,5.92
2019-04-23T04:42:42.214Z,5.97
2019-04-23T04:45:14.398Z,5.92
2019-04-23T04:47:41.349Z,6.22
2019-04-23T04:52:48.851Z,5.97
2019-04-23T04:55:12.046Z,6.62
2019-04-23T05:00:20.716Z,5.47
2019-04-23T05:03:01.146Z,5.47
2019-04-23T05:07:48.229Z,7.12
2019-04-23T05:10:29.574Z,7.17
2019-04-23T05:12:45.245Z,6.00
2019-04-23T05:17:59.643Z,5.85
2019-04-23T05:20:26.205Z,6.03
2019-04-23T05:25:25.824Z,12.03
2019-04-23T05:28:02.889Z,15.48
2019-04-23T05:30:33.035Z,15.38
2019-04-23T05:35:57.029Z,11.45
2019-04-23T05:38:07.697Z,12.03
2019-04-23T05:40:42.854Z,11.43
2019-04-23T05:42:58.410Z,10.68
2019-04-23T05:45:35.159Z,13.55
2019-04-23T05:48:16.221Z,16.00
2019-04-23T05:50:44.426Z,20.72
2019-04-23T05:53:24.138Z,19.35
2019-04-23T05:55:46.258Z,20.85
2019-04-23T05:58:14.593Z,21.00
2019-04-23T06:00:45.071Z,27.40
2019-04-23T06:03:16.054Z,31.20
2019-04-23T06:05:46.573Z,44.20
2019-04-23T06:08:20.200Z,44.65
2019-04-23T06:10:53.917Z,31.17
2019-04-23T06:13:22.509Z,35.52
2019-04-23T06:15:44.700Z,39.50
2019-04-23T06:18:28.143Z,35.90
2019-04-23T06:23:30.451Z,23.75
2019-04-23T06:26:20.207Z,28.85
2019-04-23T06:28:24.151Z,24.27
2019-04-23T06:30:56.068Z,22.67
2019-04-23T06:33:27.681Z,20.57
2019-04-23T06:36:02.875Z,21.77
2019-04-23T06:40:56.029Z,17.65
2019-04-23T06:43:56.433Z,18.62
2019-04-23T06:46:19.753Z,19.02
2019-04-23T06:48:47.059Z,14.60
2019-04-23T06:51:23.398Z,16.57
2019-04-23T06:53:43.783Z,17.42
2019-04-23T06:56:24.984Z,16.07
2019-04-23T06:58:51.193Z,15.05
2019-04-23T07:01:22.235Z,15.80
2019-04-23T07:03:57.190Z,13.60
2019-04-23T07:07:36.498Z,14.00
2019-04-23T07:09:12.130Z,13.48
2019-04-23T07:13:57.769Z,11.65
2019-04-23T07:16:31.360Z,11.53
2019-04-23T07:19:04.319Z,16.05
2019-04-23T07:21:42.444Z,10.20
2019-04-23T07:29:04.423Z,10.40
2019-04-23T07:31:35.115Z,9.13
2019-04-23T07:34:10.263Z,9.08
2019-04-23T07:36:38.914Z,12.05
2019-04-23T07:47:20.493Z,8.48
2019-04-23T07:49:49.314Z,9.28
2019-04-23T07:52:17.673Z,10.40
2019-04-23T07:54:54.099Z,10.68
2019-04-23T07:59:49.637Z,16.60
2019-04-23T08:02:24.112Z,12.50
2019-04-23T08:07:23.016Z,18.30
2019-04-23T08:09:53.605Z,18.85
2019-04-23T08:15:02.274Z,13.28
2019-04-23T08:17:22.516Z,11.22
2019-04-23T08:20:03.017Z,15.32
2019-04-23T08:22:28.613Z,16.40
2019-04-23T08:30:00.690Z,15.03
2019-04-23T08:32:29.262Z,11.65
2019-04-23T08:35:06.518Z,11.85
2019-04-23T08:40:09.636Z,11.40
2019-04-23T08:42:46.831Z,10.53
2019-04-23T08:48:17.310Z,14.55
2019-04-23T08:53:17.953Z,13.43
2019-04-23T08:58:06.027Z,7.25
2019-04-23T09:00:47.651Z,10.72
2019-04-23T09:03:18.737Z,7.95
2019-04-23T09:05:45.257Z,9.48
2019-04-23T09:08:19.129Z,11.00
2019-04-23T09:10:54.741Z,9.03
2019-04-23T09:13:45.042Z,8.53
2019-04-23T09:20:46.004Z,10.65
2019-04-23T09:23:24.487Z,9.65
2019-04-23T09:28:31.129Z,9.98
2019-04-23T09:30:57.810Z,8.45
2019-04-23T09:34:00.257Z,10.43
2019-04-23T09:36:22.387Z,8.30
2019-04-23T09:38:57.211Z,9.23
2019-04-23T09:41:39.557Z,8.85
2019-04-23T09:47:17.509Z,8.73
2019-04-23T09:52:39.267Z,7.22
2019-04-23T09:54:47.678Z,9.30
2019-04-23T09:57:10.451Z,9.20
2019-04-23T10:02:10.403Z,6.70
2019-04-23T10:04:36.817Z,10.00
2019-04-23T10:07:07.264Z,9.95
2019-04-23T10:09:27.364Z,10.18
2019-04-23T10:11:55.514Z,8.53
2019-04-23T10:14:26.173Z,9.48
2019-04-23T10:16:55.754Z,10.23
2019-04-23T10:19:26.638Z,9.28
2019-04-23T10:21:57.418Z,8.30
2019-04-23T10:24:27.666Z,12.90
2019-04-23T10:26:57.766Z,9.93
2019-04-23T10:29:29.989Z,9.35
2019-04-23T10:31:59.756Z,11.30
2019-04-23T10:34:30.496Z,7.00
2019-04-23T10:36:59.951Z,9.10
2019-04-23T10:39:35.525Z,9.93
2019-04-23T10:42:01.719Z,11.22
2019-04-23T10:44:37.362Z,7.03
2019-04-23T10:47:58.947Z,9.60
2019-04-23T10:50:37.439Z,9.58
2019-04-23T10:53:11.597Z,8.35
2019-04-23T10:55:42.224Z,10.50
2019-04-23T10:58:08.332Z,8.25
2019-04-23T11:00:46.099Z,6.33
2019-04-23T11:03:25.395Z,5.60
2019-04-23T11:05:51.656Z,7.50
2019-04-23T11:08:13.176Z,7.47
2019-04-23T11:10:46.852Z,9.03
2019-04-23T11:13:27.285Z,7.42
2019-04-23T11:18:34.423Z,9.45
2019-04-23T11:21:07.398Z,7.22
2019-04-23T11:23:29.090Z,6.17
2019-04-23T11:25:59.101Z,15.25
2019-04-23T11:28:33.352Z,7.20
2019-04-23T11:30:55.792Z,8.65
2019-04-23T11:33:51.023Z,8.30
2019-04-23T11:38:50.926Z,5.20
2019-04-23T11:41:09.417Z,6.10
2019-04-23T11:43:32.754Z,6.53
2019-04-23T11:46:19.381Z,8.93
2019-04-23T11:51:41.138Z,6.00
2019-04-23T11:53:41.296Z,7.75
2019-04-23T11:56:22.696Z,5.28
2019-04-23T11:58:42.889Z,6.35
2019-04-23T12:04:09.541Z,4.83
2019-04-23T12:06:25.180Z,10.08
2019-04-23T12:08:57.106Z,6.33
2019-04-23T12:14:31.974Z,6.87
2019-04-23T12:27:08.388Z,5.87
2019-04-23T12:37:44.814Z,5.15
2019-04-23T12:45:14.341Z,6.97
2019-04-23T12:47:59.922Z,4.53
2019-04-23T12:50:37.990Z,5.65
2019-04-23T12:52:41.444Z,6.50
2019-04-23T12:57:42.283Z,5.70
2019-04-23T13:00:16.556Z,5.30
2019-04-23T13:02:55.491Z,8.88
2019-04-23T13:05:15.771Z,5.22
2019-04-23T13:07:53.919Z,9.98
2019-04-23T13:10:24.535Z,7.00
2019-04-23T13:13:04.238Z,8.08
2019-04-23T13:15:26.328Z,9.40
2019-04-23T13:20:23.578Z,6.45
2019-04-23T13:23:18.412Z,7.72
2019-04-23T13:25:28.308Z,6.40
2019-04-23T13:30:51.332Z,10.18
2019-04-23T13:35:55.305Z,9.93
2019-04-23T13:38:10.290Z,9.63
2019-04-23T13:43:14.380Z,11.57
2019-04-23T13:48:10.749Z,11.28
2019-04-23T13:53:18.108Z,10.43
2019-04-23T13:55:42.594Z,9.43
2019-04-23T13:58:15.215Z,9.50
2019-04-23T14:00:53.856Z,11.65
2019-04-23T14:03:19.761Z,8.75
2019-04-23T14:06:00.960Z,8.15
2019-04-23T14:11:06.919Z,8.35
2019-04-23T14:13:44.116Z,8.50
2019-04-23T14:16:28.669Z,8.88
2019-04-23T14:18:51.483Z,9.43
2019-04-23T14:21:15.884Z,9.43
2019-04-23T14:23:59.150Z,11.50
2019-04-23T14:28:43.513Z,9.40
2019-04-23T14:31:11.103Z,10.82
2019-04-23T14:36:16.011Z,10.28
2019-04-23T14:38:43.763Z,10.43
2019-04-23T14:43:56.502Z,12.75
2019-04-23T14:53:48.554Z,13.35
2019-04-23T14:56:39.074Z,8.88
2019-04-23T15:07:00.880Z,13.38
2019-04-23T15:09:04.275Z,9.18
2019-04-23T15:16:30.802Z,10.48
2019-04-23T15:21:55.492Z,14.70
2019-04-23T15:28:57.306Z,11.90
2019-04-23T15:34:23.972Z,9.88
2019-04-23T15:37:00.886Z,11.03
2019-04-23T15:44:16.179Z,11.57
2019-04-23T15:49:19.934Z,11.50
2019-04-23T15:54:30.234Z,13.35
2019-04-23T15:56:55.020Z,13.78
2019-04-23T15:59:34.957Z,10.68
2019-04-23T16:01:41.197Z,10.32
2019-04-23T16:03:59.076Z,10.05
2019-04-23T16:06:32.309Z,11.12
2019-04-23T16:09:16.291Z,11.00
2019-04-23T16:11:51.775Z,10.93
2019-04-23T16:14:32.040Z,9.43
2019-04-23T16:17:02.119Z,10.23
2019-04-23T16:19:53.216Z,9.45
2019-04-23T16:24:59.346Z,14.90
2019-04-23T16:27:14.927Z,17.25
2019-04-23T16:32:33.209Z,17.35
2019-04-23T16:35:15.636Z,18.85
2019-04-23T16:37:38.903Z,16.97
2019-04-23T16:40:10.401Z,15.18
2019-04-23T16:42:29.686Z,16.65
2019-04-23T16:45:13.082Z,14.78
2019-04-23T16:52:32.653Z,16.93
2019-04-23T16:55:07.041Z,18.30
2019-04-23T16:57:45.611Z,17.35
2019-04-23T17:00:25.970Z,17.57
2019-04-23T17:02:48.515Z,21.17
2019-04-23T17:05:20.045Z,18.00
2019-04-23T17:07:53.389Z,17.90
2019-04-23T17:10:19.111Z,17.00
2019-04-23T17:12:45.863Z,18.57
2019-04-23T17:15:17.886Z,18.25
2019-04-23T17:17:46.938Z,18.37
2019-04-23T17:20:16.359Z,19.40
2019-04-23T17:22:53.161Z,16.10
2019-04-23T17:25:17.656Z,18.07
2019-04-23T17:27:58.976Z,21.20
2019-04-23T17:30:22.151Z,13.15
2019-04-23T17:33:04.323Z,16.10
2019-04-23T17:35:30.364Z,15.88
2019-04-23T17:38:13.038Z,15.10
2019-04-23T17:40:39.387Z,14.20
2019-04-23T17:43:06.030Z,15.38
2019-04-23T17:45:40.863Z,16.42
2019-04-23T17:50:53.247Z,14.28
2019-04-23T17:56:03.735Z,15.58
2019-04-23T17:58:28.910Z,19.77
2019-04-23T18:01:04.076Z,17.00
2019-04-23T18:03:25.936Z,20.60
2019-04-23T18:06:14.535Z,13.58
2019-04-23T18:08:27.710Z,19.32
2019-04-23T18:16:18.246Z,19.70
2019-04-23T18:18:38.146Z,15.72
2019-04-23T18:24:16.693Z,18.15
2019-04-23T18:27:00.646Z,15.78
2019-04-23T18:29:45.642Z,19.23
2019-04-23T18:32:22.843Z,17.55
2019-04-23T18:35:09.868Z,14.28
2019-04-23T18:37:24.317Z,12.70
2019-04-23T18:39:48.223Z,15.10
2019-04-23T18:42:37.790Z,15.00
2019-04-23T18:44:56.208Z,14.47
2019-04-23T18:49:55.799Z,14.33
2019-04-23T18:52:36.575Z,16.02
2019-04-23T18:54:55.700Z,11.78
2019-04-23T18:57:25.526Z,16.35
2019-04-23T18:59:57.353Z,17.52
2019-04-23T19:02:52.331Z,15.60
2019-04-23T19:05:18.583Z,15.40
2019-04-23T19:10:36.147Z,16.48
2019-04-23T19:13:23.357Z,16.60
2019-04-23T19:18:12.421Z,14.03
2019-04-23T19:25:45.409Z,14.05
2019-04-23T19:28:38.240Z,11.30
2019-04-23T19:31:04.979Z,11.80
2019-04-23T19:38:33.343Z,16.07
2019-04-23T19:43:50.607Z,14.43
2019-04-23T19:46:21.936Z,16.95
2019-04-23T19:48:44.512Z,14.00
2019-04-23T19:53:55.231Z,18.17
2019-04-23T19:58:51.714Z,17.05
2019-04-23T20:01:15.031Z,16.07
2019-04-23T20:03:50.038Z,15.63
2019-04-23T20:06:15.023Z,16.27
2019-04-23T20:08:53.283Z,14.47
2019-04-23T20:11:21.886Z,17.30
2019-04-23T20:16:19.725Z,16.67
2019-04-23T20:21:13.229Z,14.63
2019-04-23T20:24:04.855Z,18.60
2019-04-23T20:29:11.970Z,16.25
2019-04-23T20:36:51.356Z,16.42
2019-04-23T20:54:42.153Z,12.98
2019-04-23T20:57:31.563Z,16.93
2019-04-23T20:59:56.758Z,16.73
2019-04-23T21:02:28.380Z,14.65
2019-04-23T21:05:03.248Z,15.50
2019-04-23T21:07:42.013Z,13.90
2019-04-23T21:10:08.800Z,18.32
2019-04-23T21:12:58.179Z,14.68
2019-04-23T21:17:35.617Z,17.98
2019-04-23T21:22:31.048Z,15.60
2019-04-23T21:25:01.830Z,15.90
2019-04-23T21:30:09.012Z,15.10
2019-04-23T21:32:53.468Z,14.80
2019-04-23T21:35:20.271Z,16.67
2019-04-23T21:37:54.115Z,16.32
2019-04-23T21:40:56.530Z,15.95
2019-04-23T21:46:08.065Z,12.60
2019-04-23T21:48:16.975Z,12.37
2019-04-23T21:53:14.844Z,12.65
2019-04-23T21:55:54.279Z,15.05
2019-04-23T21:58:27.163Z,13.13
2019-04-23T22:00:58.654Z,11.90
2019-04-23T22:03:21.982Z,12.65
2019-04-23T22:05:55.539Z,13.58
2019-04-23T22:08:27.130Z,14.30
2019-04-23T22:11:12.057Z,14.98
2019-04-23T22:13:42.005Z,11.40
2019-04-23T22:18:34.213Z,11.18
2019-04-23T22:21:04.853Z,12.53
2019-04-23T22:23:41.095Z,12.05
2019-04-23T22:26:10.508Z,12.63
2019-04-23T22:28:40.361Z,14.75
2019-04-23T22:31:12.504Z,14.58
2019-04-23T22:33:39.349Z,13.88
2019-04-23T22:36:13.005Z,14.47
2019-04-23T22:38:35.930Z,15.00
2019-04-23T22:43:43.278Z,11.05
2019-04-23T22:48:47.700Z,13.28
2019-04-23T22:51:30.974Z,12.63
2019-04-23T22:53:55.861Z,14.13
2019-04-23T22:56:35.458Z,14.23
2019-04-23T22:58:51.577Z,16.00
2019-04-23T23:03:55.682Z,11.95
2019-04-23T23:06:31.013Z,13.70
2019-04-23T23:09:10.434Z,11.88
2019-04-23T23:11:26.576Z,12.45
2019-04-23T23:14:09.136Z,12.18
2019-04-23T23:19:05.104Z,12.63
2019-04-23T23:21:29.165Z,13.83
2019-04-23T23:23:59.861Z,10.50
2019-04-23T23:26:35.406Z,10.35
2019-04-23T23:29:02.414Z,12.60
2019-04-23T23:31:29.445Z,11.70
2019-04-23T23:34:09.836Z,11.05
2019-04-23T23:36:38.850Z,12.00
2019-04-23T23:39:24.694Z,11.20
2019-04-23T23:41:40.458Z,11.83
2019-04-23T23:44:38.513Z,10.70
2019-04-23T23:46:50.688Z,11.22
2019-04-23T23:49:14.203Z,11.83
2019-04-23T23:56:53.882Z,12.33
2019-04-23T23:59:17.976Z,12.70
